createdAt,value
2018-04-10T00:02:21.472Z,4.80
2018-04-10T00:04:48.927Z,6.47
2018-04-10T00:07:17.132Z,7.50
2018-04-10T00:09:44.739Z,5.23
2018-04-10T00:12:13.004Z,4.83
2018-04-10T00:14:41.246Z,4.37
2018-04-10T00:17:08.708Z,5.73
2018-04-10T00:19:36.268Z,5.73
2018-04-10T00:22:03.824Z,6.43
2018-04-10T00:24:31.268Z,5.20
2018-04-10T00:26:58.908Z,7.30
2018-04-10T00:29:26.561Z,5.40
2018-04-10T00:31:54.458Z,6.33
2018-04-10T00:34:21.976Z,6.60
2018-04-10T00:36:49.488Z,7.50
2018-04-10T00:39:16.933Z,4.80
2018-04-10T00:41:45.505Z,6.30
2018-04-10T00:44:13.064Z,5.83
2018-04-10T00:46:40.511Z,5.47
2018-04-10T00:49:07.959Z,5.50
2018-04-10T00:51:35.408Z,6.37
2018-04-10T00:54:03.208Z,7.57
2018-04-10T00:56:30.664Z,6.70
2018-04-10T00:58:58.144Z,5.63
2018-04-10T01:01:25.604Z,10.43
2018-04-10T01:03:53.060Z,5.50
2018-04-10T01:06:20.624Z,4.50
2018-04-10T01:08:48.176Z,7.70
2018-04-10T01:11:15.627Z,5.13
2018-04-10T01:13:43.080Z,6.10
2018-04-10T01:16:10.524Z,4.80
2018-04-10T01:18:37.976Z,5.43
2018-04-10T01:21:05.578Z,5.37
2018-04-10T01:23:33.800Z,5.67
2018-04-10T01:26:01.308Z,7.87
2018-04-10T01:28:28.752Z,6.33
2018-04-10T01:30:57.116Z,7.90
2018-04-10T01:33:25.272Z,5.57
2018-04-10T01:35:52.912Z,3.87
2018-04-10T01:38:21.132Z,4.20
2018-04-10T01:40:49.781Z,6.20
2018-04-10T01:43:18.420Z,4.90
2018-04-10T01:45:45.876Z,4.87
2018-04-10T01:48:13.319Z,5.40
2018-04-10T01:50:40.912Z,6.00
2018-04-10T01:53:08.576Z,4.53
2018-04-10T01:55:36.033Z,10.03
2018-04-10T01:58:03.495Z,5.43
2018-04-10T02:00:31.662Z,6.30
2018-04-10T02:02:59.220Z,5.03
2018-04-10T02:05:27.381Z,7.67
2018-04-10T02:07:55.340Z,4.00
2018-04-10T02:10:22.799Z,4.50
2018-04-10T02:18:14.776Z,6.87
2018-04-10T02:20:42.256Z,5.63
2018-04-10T02:23:09.809Z,8.23
2018-04-10T02:25:37.332Z,7.03
2018-04-10T02:28:05.032Z,4.50
2018-04-10T02:30:32.592Z,6.07
2018-04-10T02:33:00.043Z,8.27
2018-04-10T02:35:27.616Z,4.87
2018-04-10T02:37:55.773Z,5.83
2018-04-10T02:40:23.234Z,6.50
2018-04-10T02:42:50.691Z,5.97
2018-04-10T02:45:18.364Z,5.10
2018-04-10T02:47:45.887Z,4.93
2018-04-10T02:50:13.324Z,5.60
2018-04-10T02:52:40.868Z,7.37
2018-04-10T02:55:09.092Z,5.70
2018-04-10T02:57:36.546Z,6.13
2018-04-10T03:00:03.993Z,5.93
2018-04-10T03:02:31.456Z,6.70
2018-04-10T03:04:58.924Z,5.27
2018-04-10T03:07:26.411Z,5.13
2018-04-10T03:09:53.856Z,4.60
2018-04-10T03:12:21.320Z,5.73
2018-04-10T03:14:49.438Z,5.83
2018-04-10T03:17:17.660Z,5.13
2018-04-10T03:19:45.113Z,9.37
2018-04-10T03:22:12.657Z,9.43
2018-04-10T03:24:40.624Z,5.10
2018-04-10T03:27:08.781Z,6.73
2018-04-10T03:29:36.445Z,4.83
2018-04-10T03:32:04.169Z,4.90
2018-04-10T03:34:31.617Z,7.77
2018-04-10T03:36:59.648Z,7.10
2018-04-10T03:39:27.600Z,8.17
2018-04-10T03:41:55.837Z,5.87
2018-04-10T03:44:23.545Z,7.13
2018-04-10T03:46:51.060Z,6.03
2018-04-10T03:49:18.524Z,6.77
2018-04-10T03:51:45.980Z,7.10
2018-04-10T03:54:13.429Z,5.93
2018-04-10T03:56:40.998Z,8.13
2018-04-10T03:59:08.444Z,6.80
2018-04-10T04:01:36.077Z,25.87
2018-04-10T04:04:03.524Z,10.00
2018-04-10T04:06:31.884Z,11.83
2018-04-10T04:09:00.382Z,8.27
2018-04-10T04:11:27.792Z,8.37
2018-04-10T04:13:55.760Z,8.33
2018-04-10T04:16:35.056Z,11.10
2018-04-10T04:19:14.478Z,6.37
2018-04-10T04:21:53.804Z,5.97
2018-04-10T04:24:22.049Z,5.47
2018-04-10T04:26:49.568Z,6.63
2018-04-10T04:29:17.841Z,7.70
2018-04-10T04:31:45.296Z,10.50
2018-04-10T04:34:13.472Z,10.30
2018-04-10T04:36:40.977Z,6.03
2018-04-10T04:39:08.432Z,7.43
2018-04-10T04:41:35.897Z,10.53
2018-04-10T04:44:04.731Z,9.47
2018-04-10T04:46:32.516Z,5.27
2018-04-10T04:48:59.968Z,6.67
2018-04-10T04:51:28.140Z,7.63
2018-04-10T04:53:55.701Z,8.07
2018-04-10T04:56:23.160Z,8.47
2018-04-10T04:58:50.608Z,7.60
2018-04-10T05:01:18.316Z,8.07
2018-04-10T05:03:45.769Z,8.03
2018-04-10T05:06:13.232Z,6.63
2018-04-10T05:08:40.688Z,7.77
2018-04-10T05:11:08.152Z,6.40
2018-04-10T05:13:35.608Z,5.20
2018-04-10T05:16:03.129Z,6.77
2018-04-10T05:18:31.768Z,8.60
2018-04-10T05:20:59.211Z,9.50
2018-04-10T05:23:27.296Z,9.30
2018-04-10T05:25:54.731Z,7.10
2018-04-10T05:28:22.214Z,10.63
2018-04-10T05:30:49.681Z,6.30
2018-04-10T05:33:18.576Z,8.50
2018-04-10T05:35:48.016Z,6.37
2018-04-10T05:38:16.192Z,13.37
2018-04-10T05:40:43.897Z,5.37
2018-04-10T05:43:12.072Z,8.13
2018-04-10T05:45:39.528Z,8.23
2018-04-10T05:48:06.976Z,6.90
2018-04-10T05:50:34.504Z,17.27
2018-04-10T05:53:02.307Z,7.37
2018-04-10T05:55:30.472Z,8.90
2018-04-10T05:57:57.936Z,6.30
2018-04-10T06:00:25.417Z,11.70
2018-04-10T06:02:52.864Z,10.90
2018-04-10T06:05:20.426Z,9.20
2018-04-10T06:07:48.348Z,7.33
2018-04-10T06:10:15.805Z,12.03
2018-04-10T06:12:43.864Z,13.10
2018-04-10T06:15:11.326Z,16.53
2018-04-10T06:17:38.890Z,9.70
2018-04-10T06:20:06.349Z,9.33
2018-04-10T06:22:33.852Z,8.70
2018-04-10T06:25:01.312Z,7.50
2018-04-10T06:27:28.760Z,9.23
2018-04-10T06:29:56.693Z,12.43
2018-04-10T06:32:24.140Z,8.80
2018-04-10T06:34:51.656Z,9.90
2018-04-10T06:37:19.161Z,6.83
2018-04-10T06:39:46.788Z,8.13
2018-04-10T06:42:15.060Z,12.50
2018-04-10T06:44:42.520Z,11.60
2018-04-10T06:47:09.972Z,9.03
2018-04-10T06:49:38.310Z,10.07
2018-04-10T06:52:06.428Z,13.07
2018-04-10T06:54:33.884Z,9.83
2018-04-10T06:57:02.800Z,10.47
2018-04-10T06:59:31.032Z,11.80
2018-04-10T07:01:58.761Z,15.60
2018-04-10T07:04:26.273Z,17.33
2018-04-10T07:06:54.528Z,14.63
2018-04-10T07:09:21.989Z,16.30
2018-04-10T07:11:49.860Z,25.30
2018-04-10T07:14:18.401Z,19.63
2018-04-10T07:16:45.873Z,18.53
2018-04-10T07:19:13.684Z,21.50
2018-04-10T07:21:41.864Z,21.07
2018-04-10T07:24:09.328Z,21.30
2018-04-10T07:26:36.780Z,20.53
2018-04-10T07:29:04.846Z,20.93
2018-04-10T07:31:32.306Z,23.20
2018-04-10T07:33:59.764Z,25.17
2018-04-10T07:36:27.222Z,25.57
2018-04-10T07:38:54.780Z,21.87
2018-04-10T07:41:22.639Z,20.90
2018-04-10T07:43:50.925Z,24.97
2018-04-10T07:46:18.916Z,19.10
2018-04-10T07:48:47.154Z,20.07
2018-04-10T07:51:14.617Z,21.00
2018-04-10T07:53:42.401Z,22.77
2018-04-10T07:56:09.856Z,22.67
2018-04-10T07:58:37.403Z,17.97
2018-04-10T08:01:04.860Z,22.17
2018-04-10T08:03:33.049Z,20.10
2018-04-10T08:06:00.504Z,20.83
2018-04-10T08:08:27.989Z,16.57
2018-04-10T08:10:57.221Z,21.40
2018-04-10T08:13:24.981Z,18.83
2018-04-10T08:15:52.438Z,21.30
2018-04-10T08:18:20.652Z,23.33
2018-04-10T08:20:49.560Z,21.43
2018-04-10T08:23:17.020Z,24.63
2018-04-10T08:25:44.472Z,22.93
2018-04-10T08:28:12.724Z,22.63
2018-04-10T08:30:40.180Z,22.67
2018-04-10T08:33:07.660Z,18.97
2018-04-10T08:35:35.117Z,23.93
2018-04-10T08:38:02.942Z,18.97
2018-04-10T08:40:30.384Z,19.57
2018-04-10T08:42:57.904Z,22.27
2018-04-10T08:45:26.972Z,21.43
2018-04-10T08:47:55.068Z,15.67
2018-04-10T08:50:22.536Z,20.87
2018-04-10T08:52:50.117Z,20.37
2018-04-10T08:55:17.544Z,20.20
2018-04-10T08:57:45.824Z,20.60
2018-04-10T09:00:13.988Z,20.10
2018-04-10T09:02:41.568Z,21.20
2018-04-10T09:05:09.737Z,18.23
2018-04-10T09:07:37.288Z,17.47
2018-04-10T09:10:04.748Z,20.50
2018-04-10T09:12:34.464Z,15.63
2018-04-10T09:15:01.924Z,17.20
2018-04-10T09:17:29.389Z,14.53
2018-04-10T09:19:56.842Z,15.77
2018-04-10T09:22:24.396Z,16.57
2018-04-10T09:24:52.301Z,14.10
2018-04-10T09:27:20.664Z,15.73
2018-04-10T09:29:49.567Z,14.07
2018-04-10T09:32:17.804Z,11.47
2018-04-10T09:34:45.976Z,16.07
2018-04-10T09:37:13.550Z,16.60
2018-04-10T09:39:41.777Z,14.63
2018-04-10T09:42:09.616Z,14.40
2018-04-10T09:44:39.008Z,14.97
2018-04-10T09:47:06.676Z,14.20
2018-04-10T09:49:34.897Z,13.23
2018-04-10T09:52:03.193Z,13.37
2018-04-10T09:54:30.652Z,15.40
2018-04-10T09:56:58.128Z,14.77
2018-04-10T09:59:25.803Z,12.23
2018-04-10T10:01:53.353Z,14.20
2018-04-10T10:04:20.804Z,15.00
2018-04-10T10:06:48.568Z,25.90
2018-04-10T10:09:16.024Z,17.47
2018-04-10T10:11:43.492Z,23.37
2018-04-10T10:14:10.943Z,13.37
2018-04-10T10:16:39.261Z,13.77
2018-04-10T10:19:08.845Z,12.40
2018-04-10T10:21:36.396Z,12.77
2018-04-10T10:24:03.845Z,14.37
2018-04-10T10:26:31.872Z,15.33
2018-04-10T10:28:59.856Z,13.30
2018-04-10T10:31:27.328Z,11.10
2018-04-10T10:33:54.785Z,10.87
2018-04-10T10:36:22.278Z,11.60
2018-04-10T10:38:49.732Z,14.03
2018-04-10T10:41:17.201Z,12.67
2018-04-10T10:43:44.653Z,11.03
2018-04-10T10:46:12.117Z,8.40
2018-04-10T10:48:40.581Z,11.27
2018-04-10T10:51:08.804Z,8.60
2018-04-10T10:53:36.374Z,12.93
2018-04-10T10:56:04.277Z,8.77
2018-04-10T10:58:31.733Z,11.70
2018-04-10T11:00:59.208Z,9.67
2018-04-10T11:03:26.653Z,13.47
2018-04-10T11:05:54.120Z,10.00
2018-04-10T11:08:22.364Z,9.73
2018-04-10T11:10:49.805Z,8.70
2018-04-10T11:13:17.835Z,6.50
2018-04-10T11:15:45.295Z,7.57
2018-04-10T11:18:12.761Z,5.57
2018-04-10T11:20:41.013Z,7.70
2018-04-10T11:23:08.464Z,9.40
2018-04-10T11:25:36.629Z,6.03
2018-04-10T11:28:04.124Z,9.80
2018-04-10T11:30:31.602Z,9.33
2018-04-10T11:33:00.388Z,6.97
2018-04-10T11:35:28.616Z,7.33
2018-04-10T11:37:56.912Z,8.40
2018-04-10T11:40:24.360Z,8.50
2018-04-10T11:42:51.933Z,6.73
2018-04-10T11:45:19.403Z,10.27
2018-04-10T11:47:47.632Z,9.87
2018-04-10T11:50:15.844Z,11.30
2018-04-10T11:52:43.304Z,8.50
2018-04-10T11:55:10.758Z,9.73
2018-04-10T11:57:38.227Z,13.63
2018-04-10T12:00:05.904Z,11.07
2018-04-10T12:02:34.215Z,13.97
2018-04-10T12:05:01.677Z,13.43
2018-04-10T12:07:29.624Z,15.30
2018-04-10T12:09:57.438Z,16.30
2018-04-10T12:12:24.904Z,19.00
2018-04-10T12:14:52.364Z,15.33
2018-04-10T12:17:19.920Z,16.33
2018-04-10T12:19:47.857Z,19.07
2018-04-10T12:22:15.501Z,17.30
2018-04-10T12:24:42.974Z,18.57
2018-04-10T12:27:10.585Z,17.43
2018-04-10T12:29:38.045Z,18.40
2018-04-10T12:32:05.512Z,19.90
2018-04-10T12:34:34.648Z,16.27
2018-04-10T12:37:02.764Z,21.80
2018-04-10T12:39:30.220Z,15.17
2018-04-10T12:41:58.296Z,15.90
2018-04-10T12:44:25.811Z,17.97
2018-04-10T12:46:53.275Z,15.13
2018-04-10T12:49:20.845Z,15.57
2018-04-10T12:51:48.308Z,12.43
2018-04-10T12:54:15.772Z,20.43
2018-04-10T12:56:43.352Z,14.43
2018-04-10T12:59:11.021Z,16.60
2018-04-10T13:01:38.981Z,19.87
2018-04-10T13:04:07.622Z,17.53
2018-04-10T13:06:35.073Z,16.53
2018-04-10T13:09:02.643Z,14.00
2018-04-10T13:11:30.968Z,19.63
2018-04-10T13:13:59.741Z,16.97
2018-04-10T13:16:27.211Z,18.63
2018-04-10T13:18:55.512Z,20.47
2018-04-10T13:21:23.759Z,13.73
2018-04-10T13:23:51.220Z,18.70
2018-04-10T13:26:19.508Z,18.37
2018-04-10T13:28:46.969Z,21.60
2018-04-10T13:31:14.520Z,19.73
2018-04-10T13:33:41.972Z,15.53
2018-04-10T13:36:10.561Z,19.93
2018-04-10T13:38:38.027Z,17.97
2018-04-10T13:41:05.493Z,18.73
2018-04-10T13:43:34.425Z,19.07
2018-04-10T13:46:01.884Z,21.77
2018-04-10T13:48:29.352Z,15.23
2018-04-10T13:50:57.436Z,14.73
2018-04-10T13:53:24.897Z,16.27
2018-04-10T13:55:53.644Z,15.70
2018-04-10T13:58:21.671Z,15.07
2018-04-10T14:00:49.952Z,13.77
2018-04-10T14:03:17.409Z,12.87
2018-04-10T14:05:46.504Z,12.77
2018-04-10T14:08:15.012Z,13.30
2018-04-10T14:10:43.269Z,12.93
2018-04-10T14:13:12.064Z,9.23
2018-04-10T14:15:39.536Z,13.83
2018-04-10T14:18:08.303Z,10.07
2018-04-10T14:20:35.760Z,8.77
2018-04-10T14:23:03.840Z,10.27
2018-04-10T14:25:31.296Z,9.57
2018-04-10T14:27:58.754Z,11.40
2018-04-10T14:30:26.204Z,7.93
2018-04-10T14:32:54.912Z,10.13
2018-04-10T14:35:23.148Z,6.13
2018-04-10T14:37:51.241Z,8.40
2018-04-10T14:40:19.472Z,6.00
2018-04-10T14:42:46.926Z,7.17
2018-04-10T14:45:14.436Z,9.47
2018-04-10T14:47:41.893Z,5.53
2018-04-10T14:50:09.352Z,6.07
2018-04-10T14:52:36.976Z,8.83
2018-04-10T14:55:04.432Z,5.60
2018-04-10T14:57:32.194Z,8.70
2018-04-10T14:59:59.828Z,4.63
2018-04-10T15:02:28.064Z,6.60
2018-04-10T15:04:55.737Z,3.50
2018-04-10T15:07:23.183Z,6.77
2018-04-10T15:09:50.648Z,5.67
2018-04-10T15:12:18.096Z,5.33
2018-04-10T15:14:46.093Z,6.00
2018-04-10T15:17:13.544Z,9.23
2018-04-10T15:19:41.137Z,3.53
2018-04-10T15:22:09.356Z,7.77
2018-04-10T15:24:36.816Z,4.33
2018-04-10T15:27:04.273Z,4.37
2018-04-10T15:29:31.730Z,5.33
2018-04-10T15:31:59.189Z,6.07
2018-04-10T15:34:26.646Z,4.00
2018-04-10T15:36:54.096Z,6.93
2018-04-10T15:39:21.564Z,4.97
2018-04-10T15:41:49.020Z,3.70
2018-04-10T15:44:17.933Z,8.70
2018-04-10T15:46:47.072Z,3.77
2018-04-10T15:49:15.305Z,2.63
2018-04-10T15:51:42.852Z,3.30
2018-04-10T15:54:10.320Z,3.07
2018-04-10T15:56:38.316Z,4.47
2018-04-10T15:59:06.570Z,2.23
2018-04-10T16:01:34.020Z,5.90
2018-04-10T16:04:02.040Z,6.67
2018-04-10T16:06:30.248Z,11.70
2018-04-10T16:08:57.736Z,5.67
2018-04-10T16:11:25.191Z,4.50
2018-04-10T16:13:53.357Z,4.33
2018-04-10T16:16:21.740Z,3.53
2018-04-10T16:18:49.309Z,4.60
2018-04-10T16:21:16.820Z,4.50
2018-04-10T16:23:44.324Z,5.50
2018-04-10T16:26:12.824Z,4.07
2018-04-10T16:28:40.288Z,11.50
2018-04-10T16:31:07.733Z,7.50
2018-04-10T16:33:35.296Z,7.70
2018-04-10T16:36:02.756Z,4.90
2018-04-10T16:38:30.733Z,5.10
2018-04-10T16:40:59.057Z,5.07
2018-04-10T16:43:27.160Z,3.77
2018-04-10T16:45:55.265Z,4.60
2018-04-10T16:48:23.492Z,5.97
2018-04-10T16:50:50.944Z,6.30
2018-04-10T16:53:18.412Z,4.40
2018-04-10T16:55:45.864Z,3.73
2018-04-10T16:58:13.333Z,4.43
2018-04-10T17:00:41.092Z,3.00
2018-04-10T17:03:08.569Z,5.10
2018-04-10T17:05:37.253Z,6.90
2018-04-10T17:08:04.815Z,3.23
2018-04-10T17:10:32.280Z,7.67
2018-04-10T17:12:59.746Z,6.77
2018-04-10T17:15:28.220Z,9.13
2018-04-10T17:17:55.684Z,12.23
2018-04-10T17:20:23.714Z,3.97
2018-04-10T17:22:51.180Z,6.17
2018-04-10T17:25:18.635Z,6.33
2018-04-10T17:27:46.948Z,7.33
2018-04-10T17:30:15.357Z,6.97
2018-04-10T17:32:43.289Z,6.07
2018-04-10T20:44:41.675Z,4.97
2018-04-10T20:47:09.145Z,6.77
2018-04-10T20:49:36.655Z,6.73
2018-04-10T20:52:04.888Z,7.07
2018-04-10T20:54:32.352Z,6.30
2018-04-10T20:56:59.817Z,7.23
2018-04-10T20:59:28.040Z,8.30
2018-04-10T21:01:55.538Z,6.27
2018-04-10T21:04:22.996Z,7.53
2018-04-10T21:06:50.563Z,10.83
2018-04-10T21:09:18.020Z,7.30
2018-04-10T21:11:45.572Z,7.90
